Copper Center, AK (99573)

6:31 PM AKDT on September 02, 2015 (GMT -0800)
Klutina River | | Change Station
CLOSE
Current Station
Personal Weather Station
Location: Copper Center, AK
Elevation: 1100 ft
Nearby Weather Stations

Elev 1100 ft 61.95 °N, 145.32 °W | Updated 19 seconds ago

Clear
Clear
59.0 °F
Feels Like 59.0 °F
N
0.0
Wind Variable Wind from West
Gusts 6.0 mph

Today
High -- | Low -- °F
--% Chance of Precip.
Yesterday
High -- | Low -- °F
Precip. -- in
6:33 AM 8:47 PM
Waning Gibbous, 75% visible
Pressure 30.05 in
Visibility 10.0 miles
Clouds Clear
Dew Point 33 °F
Humidity 38%
Rainfall 0.00 in
Snow Depth Not available.
UV 1 out of 12
Pollen Not available.
Air Quality Not available.
Flu Activity Not available.
METAR PAGK 030153Z AUTO 00000KT 10SM CLR 15/M02 A3002 RMK AO2 SLP176 T01501017 TSNO
Pressure 30.05 in
Visibility 10.0 miles
Clouds Clear
Dew Point 33 °F
Humidity 38%
Rainfall 0.00 in
Snow Depth Not available.
UV 1 out of 12
Pollen Not available.
Air Quality Not available.
Flu Activity Not available.
METAR PAGK 030153Z AUTO 00000KT 10SM CLR 15/M02 A3002 RMK AO2 SLP176 T01501017 TSNO

10-Day Weather Forecast

×

Almanac

Astronomy

Sep. 02, 2015 Rise Set
Actual Time
Civil Twilight
Nautical Twilight
Astronomical Twilight
Moon
Length of Visible Light
Length of Day
Tomorrow will be .
, % of the Moon is Illuminated

Today's Extremes

State Highs State Lows

Community

WunderPhotos

Upload Photos

1,851,879 photos uploaded!

WunderBlogs® & News

Nearby

Air Quality

  Air Quality AQ Index Pollutant
Not available.

Snow Depth

Station Depth Elevation

Earthquake Activity

City Distance Mag. Time & Date
Minimum magnitude displayed is 2.5.

Coastal Water Temperatures

Place Temperature

Stations

Nearby Weather Stations

Station Location Temp. Windchill Dew Point Humidity Wind Precip. Elev Updated Type